sensor_id;sensor_type;location;lat;lon;timestamp;P1;durP1;ratioP1;P2;durP2;ratioP2
40717;SDS011;26405;51.850;-2.246;2022-12-07T00:00:38;19.65;;;8.45;;
40717;SDS011;26405;51.850;-2.246;2022-12-07T00:03:03;18.90;;;7.97;;
40717;SDS011;26405;51.850;-2.246;2022-12-07T00:05:29;19.38;;;8.20;;
40717;SDS011;26405;51.850;-2.246;2022-12-07T00:07:54;17.52;;;7.35;;
40717;SDS011;26405;51.850;-2.246;2022-12-07T00:10:20;19.35;;;7.90;;
40717;SDS011;26405;51.850;-2.246;2022-12-07T00:12:45;19.15;;;7.32;;
40717;SDS011;26405;51.850;-2.246;2022-12-07T00:18:13;18.05;;;7.38;;
40717;SDS011;26405;51.850;-2.246;2022-12-07T00:20:38;17.15;;;7.30;;
40717;SDS011;26405;51.850;-2.246;2022-12-07T00:23:04;17.35;;;6.95;;
40717;SDS011;26405;51.850;-2.246;2022-12-07T00:25:30;20.27;;;8.32;;
40717;SDS011;26405;51.850;-2.246;2022-12-07T00:27:55;20.05;;;8.23;;
40717;SDS011;26405;51.850;-2.246;2022-12-07T00:30:21;23.45;;;10.57;;
40717;SDS011;26405;51.850;-2.246;2022-12-07T00:32:47;25.75;;;12.20;;
40717;SDS011;26405;51.850;-2.246;2022-12-07T00:35:12;29.33;;;14.88;;
40717;SDS011;26405;51.850;-2.246;2022-12-07T00:37:37;30.83;;;15.70;;
40717;SDS011;26405;51.850;-2.246;2022-12-07T00:40:03;32.65;;;16.65;;
40717;SDS011;26405;51.850;-2.246;2022-12-07T00:42:28;35.60;;;18.48;;
40717;SDS011;26405;51.850;-2.246;2022-12-07T00:44:53;35.65;;;18.25;;
40717;SDS011;26405;51.850;-2.246;2022-12-07T00:47:19;34.33;;;18.20;;
40717;SDS011;26405;51.850;-2.246;2022-12-07T00:49:44;24.98;;;10.93;;
40717;SDS011;26405;51.850;-2.246;2022-12-07T00:52:09;26.17;;;11.77;;
40717;SDS011;26405;51.850;-2.246;2022-12-07T00:54:34;23.95;;;10.23;;
40717;SDS011;26405;51.850;-2.246;2022-12-07T00:57:00;22.75;;;9.35;;
40717;SDS011;26405;51.850;-2.246;2022-12-07T00:59:25;22.17;;;9.35;;
40717;SDS011;26405;51.850;-2.246;2022-12-07T01:01:50;20.73;;;8.18;;
40717;SDS011;26405;51.850;-2.246;2022-12-07T01:04:15;17.75;;;6.75;;
40717;SDS011;26405;51.850;-2.246;2022-12-07T01:06:41;17.50;;;7.03;;
40717;SDS011;26405;51.850;-2.246;2022-12-07T01:09:06;17.70;;;7.28;;
40717;SDS011;26405;51.850;-2.246;2022-12-07T01:11:32;18.58;;;6.90;;
40717;SDS011;26405;51.850;-2.246;2022-12-07T01:13:57;16.60;;;6.18;;
40717;SDS011;26405;51.850;-2.246;2022-12-07T01:16:24;17.08;;;6.47;;
40717;SDS011;26405;51.850;-2.246;2022-12-07T01:18:50;17.70;;;6.65;;
40717;SDS011;26405;51.850;-2.246;2022-12-07T01:21:16;16.03;;;6.43;;
40717;SDS011;26405;51.850;-2.246;2022-12-07T01:23:42;15.40;;;5.95;;
40717;SDS011;26405;51.850;-2.246;2022-12-07T01:26:11;17.33;;;6.50;;
40717;SDS011;26405;51.850;-2.246;2022-12-07T01:28:36;19.90;;;7.80;;
40717;SDS011;26405;51.850;-2.246;2022-12-07T01:31:06;20.50;;;8.25;;
40717;SDS011;26405;51.850;-2.246;2022-12-07T01:33:32;19.75;;;7.63;;
40717;SDS011;26405;51.850;-2.246;2022-12-07T01:36:08;17.52;;;7.13;;
40717;SDS011;26405;51.850;-2.246;2022-12-07T01:38:37;18.08;;;7.32;;
40717;SDS011;26405;51.850;-2.246;2022-12-07T01:41:02;18.50;;;6.60;;
40717;SDS011;26405;51.850;-2.246;2022-12-07T01:43:28;16.90;;;6.78;;
40717;SDS011;26405;51.850;-2.246;2022-12-07T01:45:54;16.60;;;6.37;;
40717;SDS011;26405;51.850;-2.246;2022-12-07T01:48:21;16.75;;;6.20;;
40717;SDS011;26405;51.850;-2.246;2022-12-07T01:50:48;16.75;;;6.05;;
40717;SDS011;26405;51.850;-2.246;2022-12-07T01:53:13;18.13;;;5.95;;
40717;SDS011;26405;51.850;-2.246;2022-12-07T01:55:40;14.40;;;6.10;;
40717;SDS011;26405;51.850;-2.246;2022-12-07T02:00:32;13.17;;;5.40;;
40717;SDS011;26405;51.850;-2.246;2022-12-07T02:03:11;14.30;;;5.38;;
40717;SDS011;26405;51.850;-2.246;2022-12-07T02:05:38;14.23;;;5.78;;
40717;SDS011;26405;51.850;-2.246;2022-12-07T02:08:05;17.27;;;6.25;;
40717;SDS011;26405;51.850;-2.246;2022-12-07T02:10:31;18.02;;;6.13;;
40717;SDS011;26405;51.850;-2.246;2022-12-07T02:13:18;16.73;;;6.10;;
40717;SDS011;26405;51.850;-2.246;2022-12-07T02:15:44;14.57;;;5.78;;
40717;SDS011;26405;51.850;-2.246;2022-12-07T02:18:22;17.10;;;5.88;;
40717;SDS011;26405;51.850;-2.246;2022-12-07T02:21:03;14.13;;;5.60;;
40717;SDS011;26405;51.850;-2.246;2022-12-07T02:24:12;14.38;;;5.53;;
40717;SDS011;26405;51.850;-2.246;2022-12-07T02:31:30;17.88;;;6.43;;
40717;SDS011;26405;51.850;-2.246;2022-12-07T02:34:04;15.48;;;5.63;;
40717;SDS011;26405;51.850;-2.246;2022-12-07T02:36:30;15.60;;;5.45;;
40717;SDS011;26405;51.850;-2.246;2022-12-07T02:39:40;17.00;;;5.60;;
40717;SDS011;26405;51.850;-2.246;2022-12-07T02:41:47;14.75;;;5.85;;
40717;SDS011;26405;51.850;-2.246;2022-12-07T02:44:13;14.43;;;5.45;;
40717;SDS011;26405;51.850;-2.246;2022-12-07T02:46:41;13.23;;;5.47;;
40717;SDS011;26405;51.850;-2.246;2022-12-07T02:49:07;17.65;;;5.50;;
40717;SDS011;26405;51.850;-2.246;2022-12-07T02:51:33;17.30;;;5.15;;
40717;SDS011;26405;51.850;-2.246;2022-12-07T02:53:59;16.88;;;6.00;;
40717;SDS011;26405;51.850;-2.246;2022-12-07T02:58:54;12.97;;;5.30;;
40717;SDS011;26405;51.850;-2.246;2022-12-07T03:04:05;11.90;;;4.68;;
40717;SDS011;26405;51.850;-2.246;2022-12-07T03:06:35;14.90;;;5.20;;
40717;SDS011;26405;51.850;-2.246;2022-12-07T03:11:44;15.85;;;4.70;;
40717;SDS011;26405;51.850;-2.246;2022-12-07T03:14:21;12.00;;;4.70;;
40717;SDS011;26405;51.850;-2.246;2022-12-07T03:16:59;13.68;;;5.03;;
40717;SDS011;26405;51.850;-2.246;2022-12-07T03:19:27;15.25;;;5.20;;
40717;SDS011;26405;51.850;-2.246;2022-12-07T03:21:54;14.65;;;4.85;;
40717;SDS011;26405;51.850;-2.246;2022-12-07T03:24:22;11.65;;;4.50;;
40717;SDS011;26405;51.850;-2.246;2022-12-07T03:26:51;13.60;;;4.40;;
40717;SDS011;26405;51.850;-2.246;2022-12-07T03:32:12;14.32;;;4.72;;
40717;SDS011;26405;51.850;-2.246;2022-12-07T03:38:14;12.80;;;4.47;;
40717;SDS011;26405;51.850;-2.246;2022-12-07T03:42:33;14.93;;;4.30;;
40717;SDS011;26405;51.850;-2.246;2022-12-07T03:44:59;12.32;;;4.55;;
40717;SDS011;26405;51.850;-2.246;2022-12-07T03:50:28;14.25;;;4.68;;
40717;SDS011;26405;51.850;-2.246;2022-12-07T03:52:45;14.05;;;4.38;;
40717;SDS011;26405;51.850;-2.246;2022-12-07T03:55:14;12.98;;;4.72;;
40717;SDS011;26405;51.850;-2.246;2022-12-07T03:57:42;12.85;;;4.65;;
40717;SDS011;26405;51.850;-2.246;2022-12-07T04:00:09;14.73;;;4.72;;
40717;SDS011;26405;51.850;-2.246;2022-12-07T04:02:35;12.85;;;4.57;;
40717;SDS011;26405;51.850;-2.246;2022-12-07T04:05:00;13.57;;;4.28;;
40717;SDS011;26405;51.850;-2.246;2022-12-07T04:07:26;12.35;;;4.25;;
40717;SDS011;26405;51.850;-2.246;2022-12-07T04:09:51;11.40;;;4.32;;
40717;SDS011;26405;51.850;-2.246;2022-12-07T04:12:16;17.02;;;4.75;;
40717;SDS011;26405;51.850;-2.246;2022-12-07T04:14:42;11.10;;;4.35;;
40717;SDS011;26405;51.850;-2.246;2022-12-07T04:17:08;11.07;;;4.30;;
40717;SDS011;26405;51.850;-2.246;2022-12-07T04:19:33;12.45;;;4.20;;
40717;SDS011;26405;51.850;-2.246;2022-12-07T04:21:59;12.57;;;4.28;;
40717;SDS011;26405;51.850;-2.246;2022-12-07T04:24:25;13.17;;;4.13;;
40717;SDS011;26405;51.850;-2.246;2022-12-07T04:26:50;13.75;;;4.38;;
40717;SDS011;26405;51.850;-2.246;2022-12-07T04:29:16;11.85;;;4.35;;
40717;SDS011;26405;51.850;-2.246;2022-12-07T04:31:42;12.50;;;4.22;;
40717;SDS011;26405;51.850;-2.246;2022-12-07T04:34:07;12.13;;;4.18;;
40717;SDS011;26405;51.850;-2.246;2022-12-07T04:36:32;10.18;;;4.05;;
40717;SDS011;26405;51.850;-2.246;2022-12-07T04:38:58;14.15;;;4.35;;
40717;SDS011;26405;51.850;-2.246;2022-12-07T04:41:24;12.35;;;4.00;;
40717;SDS011;26405;51.850;-2.246;2022-12-07T04:43:53;12.13;;;4.32;;
40717;SDS011;26405;51.850;-2.246;2022-12-07T04:46:18;8.75;;;3.92;;
40717;SDS011;26405;51.850;-2.246;2022-12-07T04:48:44;14.20;;;4.38;;
40717;SDS011;26405;51.850;-2.246;2022-12-07T04:51:09;8.77;;;3.65;;
40717;SDS011;26405;51.850;-2.246;2022-12-07T04:53:34;13.55;;;4.50;;
40717;SDS011;26405;51.850;-2.246;2022-12-07T04:56:00;10.30;;;4.20;;
40717;SDS011;26405;51.850;-2.246;2022-12-07T04:58:26;12.80;;;4.68;;
40717;SDS011;26405;51.850;-2.246;2022-12-07T05:00:53;10.93;;;4.45;;
40717;SDS011;26405;51.850;-2.246;2022-12-07T05:03:18;14.00;;;4.78;;
40717;SDS011;26405;51.850;-2.246;2022-12-07T05:05:43;14.45;;;5.43;;
40717;SDS011;26405;51.850;-2.246;2022-12-07T05:08:09;13.48;;;6.00;;
40717;SDS011;26405;51.850;-2.246;2022-12-07T05:10:34;16.83;;;5.93;;
40717;SDS011;26405;51.850;-2.246;2022-12-07T05:12:59;17.33;;;6.07;;
40717;SDS011;26405;51.850;-2.246;2022-12-07T05:15:24;15.48;;;6.03;;
40717;SDS011;26405;51.850;-2.246;2022-12-07T05:17:50;14.32;;;5.22;;
40717;SDS011;26405;51.850;-2.246;2022-12-07T05:20:17;15.38;;;5.15;;
40717;SDS011;26405;51.850;-2.246;2022-12-07T05:22:42;14.88;;;6.00;;
40717;SDS011;26405;51.850;-2.246;2022-12-07T05:25:07;18.15;;;6.68;;
40717;SDS011;26405;51.850;-2.246;2022-12-07T05:27:33;15.80;;;5.78;;
40717;SDS011;26405;51.850;-2.246;2022-12-07T05:29:58;16.17;;;6.18;;
40717;SDS011;26405;51.850;-2.246;2022-12-07T05:32:23;12.90;;;5.40;;
40717;SDS011;26405;51.850;-2.246;2022-12-07T05:34:49;12.50;;;4.80;;
40717;SDS011;26405;51.850;-2.246;2022-12-07T05:37:14;14.63;;;4.63;;
40717;SDS011;26405;51.850;-2.246;2022-12-07T05:39:40;12.70;;;4.53;;
40717;SDS011;26405;51.850;-2.246;2022-12-07T05:42:08;11.60;;;4.53;;
40717;SDS011;26405;51.850;-2.246;2022-12-07T05:44:43;13.40;;;4.65;;
40717;SDS011;26405;51.850;-2.246;2022-12-07T05:47:09;10.68;;;4.30;;
40717;SDS011;26405;51.850;-2.246;2022-12-07T05:49:35;16.23;;;5.10;;
40717;SDS011;26405;51.850;-2.246;2022-12-07T05:52:00;13.98;;;4.93;;
40717;SDS011;26405;51.850;-2.246;2022-12-07T05:54:25;13.25;;;4.43;;
40717;SDS011;26405;51.850;-2.246;2022-12-07T05:56:51;13.65;;;4.97;;
40717;SDS011;26405;51.850;-2.246;2022-12-07T05:59:16;12.52;;;4.63;;
40717;SDS011;26405;51.850;-2.246;2022-12-07T06:01:48;10.77;;;4.43;;
40717;SDS011;26405;51.850;-2.246;2022-12-07T06:04:13;12.85;;;4.88;;
40717;SDS011;26405;51.850;-2.246;2022-12-07T06:06:38;15.10;;;4.97;;
40717;SDS011;26405;51.850;-2.246;2022-12-07T06:09:03;10.73;;;4.07;;
40717;SDS011;26405;51.850;-2.246;2022-12-07T06:11:29;10.43;;;3.72;;
40717;SDS011;26405;51.850;-2.246;2022-12-07T06:14:13;14.02;;;4.55;;
40717;SDS011;26405;51.850;-2.246;2022-12-07T06:16:38;14.32;;;4.50;;
40717;SDS011;26405;51.850;-2.246;2022-12-07T06:19:03;14.90;;;4.95;;
40717;SDS011;26405;51.850;-2.246;2022-12-07T06:21:28;10.10;;;3.95;;
40717;SDS011;26405;51.850;-2.246;2022-12-07T06:23:54;13.52;;;5.13;;
40717;SDS011;26405;51.850;-2.246;2022-12-07T06:26:19;14.10;;;4.53;;
40717;SDS011;26405;51.850;-2.246;2022-12-07T06:28:45;11.73;;;4.50;;
40717;SDS011;26405;51.850;-2.246;2022-12-07T06:31:10;12.35;;;4.50;;
40717;SDS011;26405;51.850;-2.246;2022-12-07T06:33:35;12.02;;;4.55;;
40717;SDS011;26405;51.850;-2.246;2022-12-07T06:36:00;16.70;;;4.75;;
40717;SDS011;26405;51.850;-2.246;2022-12-07T06:38:25;13.43;;;4.50;;
40717;SDS011;26405;51.850;-2.246;2022-12-07T06:40:51;13.77;;;4.72;;
40717;SDS011;26405;51.850;-2.246;2022-12-07T06:43:16;17.55;;;5.35;;
40717;SDS011;26405;51.850;-2.246;2022-12-07T06:45:41;14.38;;;5.07;;
40717;SDS011;26405;51.850;-2.246;2022-12-07T06:48:07;14.45;;;5.00;;
40717;SDS011;26405;51.850;-2.246;2022-12-07T06:50:32;13.65;;;4.80;;
40717;SDS011;26405;51.850;-2.246;2022-12-07T06:52:57;13.73;;;4.88;;
40717;SDS011;26405;51.850;-2.246;2022-12-07T06:55:23;20.48;;;5.90;;
40717;SDS011;26405;51.850;-2.246;2022-12-07T06:57:48;24.30;;;10.35;;
40717;SDS011;26405;51.850;-2.246;2022-12-07T07:00:13;31.95;;;13.27;;
40717;SDS011;26405;51.850;-2.246;2022-12-07T07:02:39;42.58;;;21.38;;
40717;SDS011;26405;51.850;-2.246;2022-12-07T07:05:04;34.80;;;17.48;;
40717;SDS011;26405;51.850;-2.246;2022-12-07T07:07:29;34.17;;;15.63;;
40717;SDS011;26405;51.850;-2.246;2022-12-07T07:09:54;30.13;;;12.93;;
40717;SDS011;26405;51.850;-2.246;2022-12-07T07:12:20;32.50;;;12.07;;
40717;SDS011;26405;51.850;-2.246;2022-12-07T07:14:45;26.88;;;10.75;;
40717;SDS011;26405;51.850;-2.246;2022-12-07T07:17:10;25.02;;;9.60;;
40717;SDS011;26405;51.850;-2.246;2022-12-07T07:19:36;24.02;;;9.55;;
40717;SDS011;26405;51.850;-2.246;2022-12-07T07:22:02;22.52;;;9.27;;
40717;SDS011;26405;51.850;-2.246;2022-12-07T07:24:27;19.35;;;7.95;;
40717;SDS011;26405;51.850;-2.246;2022-12-07T07:26:52;21.85;;;8.80;;
40717;SDS011;26405;51.850;-2.246;2022-12-07T07:29:18;21.13;;;8.32;;
40717;SDS011;26405;51.850;-2.246;2022-12-07T07:31:43;20.33;;;7.53;;
40717;SDS011;26405;51.850;-2.246;2022-12-07T07:34:08;20.83;;;7.82;;
40717;SDS011;26405;51.850;-2.246;2022-12-07T07:36:33;20.77;;;7.95;;
40717;SDS011;26405;51.850;-2.246;2022-12-07T07:38:59;22.80;;;7.28;;
40717;SDS011;26405;51.850;-2.246;2022-12-07T07:41:24;18.65;;;7.22;;
40717;SDS011;26405;51.850;-2.246;2022-12-07T07:43:49;19.23;;;6.82;;
40717;SDS011;26405;51.850;-2.246;2022-12-07T07:46:15;17.17;;;6.47;;
40717;SDS011;26405;51.850;-2.246;2022-12-07T07:48:40;18.70;;;6.93;;
40717;SDS011;26405;51.850;-2.246;2022-12-07T07:51:08;17.38;;;7.13;;
40717;SDS011;26405;51.850;-2.246;2022-12-07T07:53:34;18.08;;;7.65;;
40717;SDS011;26405;51.850;-2.246;2022-12-07T07:55:59;21.92;;;7.15;;
40717;SDS011;26405;51.850;-2.246;2022-12-07T07:58:24;32.05;;;12.05;;
40717;SDS011;26405;51.850;-2.246;2022-12-07T08:00:50;36.30;;;13.95;;
40717;SDS011;26405;51.850;-2.246;2022-12-07T08:03:15;40.22;;;17.05;;
40717;SDS011;26405;51.850;-2.246;2022-12-07T08:05:41;42.03;;;18.08;;
40717;SDS011;26405;51.850;-2.246;2022-12-07T08:08:06;36.90;;;16.10;;
40717;SDS011;26405;51.850;-2.246;2022-12-07T08:10:31;35.28;;;14.85;;
40717;SDS011;26405;51.850;-2.246;2022-12-07T08:12:57;36.33;;;13.75;;
40717;SDS011;26405;51.850;-2.246;2022-12-07T08:15:44;31.13;;;12.50;;
40717;SDS011;26405;51.850;-2.246;2022-12-07T08:18:10;30.85;;;12.27;;
40717;SDS011;26405;51.850;-2.246;2022-12-07T08:20:36;30.13;;;11.73;;
40717;SDS011;26405;51.850;-2.246;2022-12-07T08:23:01;32.90;;;12.57;;
40717;SDS011;26405;51.850;-2.246;2022-12-07T08:25:27;30.02;;;11.02;;
40717;SDS011;26405;51.850;-2.246;2022-12-07T08:27:53;31.33;;;11.50;;
40717;SDS011;26405;51.850;-2.246;2022-12-07T08:30:18;24.88;;;10.20;;
40717;SDS011;26405;51.850;-2.246;2022-12-07T08:32:44;25.52;;;9.93;;
40717;SDS011;26405;51.850;-2.246;2022-12-07T08:35:10;23.17;;;9.35;;
40717;SDS011;26405;51.850;-2.246;2022-12-07T08:37:35;21.10;;;8.52;;
40717;SDS011;26405;51.850;-2.246;2022-12-07T08:40:00;22.63;;;9.45;;
40717;SDS011;26405;51.850;-2.246;2022-12-07T08:42:26;23.98;;;8.90;;
40717;SDS011;26405;51.850;-2.246;2022-12-07T08:44:55;20.75;;;8.32;;
40717;SDS011;26405;51.850;-2.246;2022-12-07T08:47:20;21.63;;;7.93;;
40717;SDS011;26405;51.850;-2.246;2022-12-07T08:49:46;20.40;;;7.35;;
40717;SDS011;26405;51.850;-2.246;2022-12-07T08:52:12;18.55;;;7.65;;
40717;SDS011;26405;51.850;-2.246;2022-12-07T08:54:40;20.05;;;7.18;;
40717;SDS011;26405;51.850;-2.246;2022-12-07T08:57:06;18.52;;;6.88;;
40717;SDS011;26405;51.850;-2.246;2022-12-07T08:59:32;18.33;;;6.40;;
40717;SDS011;26405;51.850;-2.246;2022-12-07T09:01:58;21.00;;;7.95;;
40717;SDS011;26405;51.850;-2.246;2022-12-07T09:04:23;22.38;;;8.27;;
40717;SDS011;26405;51.850;-2.246;2022-12-07T09:06:49;20.60;;;8.45;;
40717;SDS011;26405;51.850;-2.246;2022-12-07T09:09:14;25.92;;;8.70;;
40717;SDS011;26405;51.850;-2.246;2022-12-07T09:11:39;22.40;;;8.70;;
40717;SDS011;26405;51.850;-2.246;2022-12-07T09:14:05;22.95;;;8.93;;
40717;SDS011;26405;51.850;-2.246;2022-12-07T09:16:30;21.83;;;8.23;;
40717;SDS011;26405;51.850;-2.246;2022-12-07T09:18:55;28.27;;;9.48;;
40717;SDS011;26405;51.850;-2.246;2022-12-07T09:21:21;24.02;;;9.27;;
40717;SDS011;26405;51.850;-2.246;2022-12-07T09:23:46;21.27;;;8.98;;
40717;SDS011;26405;51.850;-2.246;2022-12-07T09:26:11;19.92;;;8.27;;
40717;SDS011;26405;51.850;-2.246;2022-12-07T09:28:37;23.35;;;8.13;;
40717;SDS011;26405;51.850;-2.246;2022-12-07T09:31:02;20.23;;;7.85;;
40717;SDS011;26405;51.850;-2.246;2022-12-07T09:33:28;18.27;;;6.43;;
40717;SDS011;26405;51.850;-2.246;2022-12-07T09:35:53;14.95;;;5.68;;
40717;SDS011;26405;51.850;-2.246;2022-12-07T09:38:19;12.52;;;4.97;;
40717;SDS011;26405;51.850;-2.246;2022-12-07T09:40:44;14.25;;;4.53;;
40717;SDS011;26405;51.850;-2.246;2022-12-07T09:43:13;13.88;;;4.78;;
40717;SDS011;26405;51.850;-2.246;2022-12-07T09:45:39;13.38;;;4.78;;
40717;SDS011;26405;51.850;-2.246;2022-12-07T09:48:05;19.15;;;6.55;;
40717;SDS011;26405;51.850;-2.246;2022-12-07T09:50:31;20.00;;;7.20;;
40717;SDS011;26405;51.850;-2.246;2022-12-07T09:53:08;18.13;;;5.85;;
40717;SDS011;26405;51.850;-2.246;2022-12-07T09:55:33;16.15;;;5.57;;
40717;SDS011;26405;51.850;-2.246;2022-12-07T09:58:01;11.77;;;4.70;;
40717;SDS011;26405;51.850;-2.246;2022-12-07T10:00:26;13.85;;;4.60;;
40717;SDS011;26405;51.850;-2.246;2022-12-07T10:02:57;14.00;;;4.53;;
40717;SDS011;26405;51.850;-2.246;2022-12-07T10:05:24;13.38;;;4.00;;
40717;SDS011;26405;51.850;-2.246;2022-12-07T10:07:50;14.02;;;4.53;;
40717;SDS011;26405;51.850;-2.246;2022-12-07T10:10:20;14.27;;;4.22;;
40717;SDS011;26405;51.850;-2.246;2022-12-07T10:12:57;12.38;;;4.28;;
40717;SDS011;26405;51.850;-2.246;2022-12-07T10:15:37;15.15;;;4.85;;
40717;SDS011;26405;51.850;-2.246;2022-12-07T10:18:06;14.10;;;4.72;;
40717;SDS011;26405;51.850;-2.246;2022-12-07T10:20:41;12.55;;;4.30;;
40717;SDS011;26405;51.850;-2.246;2022-12-07T10:23:08;12.85;;;4.35;;
40717;SDS011;26405;51.850;-2.246;2022-12-07T10:25:38;11.32;;;3.95;;
40717;SDS011;26405;51.850;-2.246;2022-12-07T10:30:45;12.88;;;4.05;;
40717;SDS011;26405;51.850;-2.246;2022-12-07T10:34:14;12.15;;;3.83;;
40717;SDS011;26405;51.850;-2.246;2022-12-07T10:36:15;11.38;;;4.05;;
40717;SDS011;26405;51.850;-2.246;2022-12-07T10:38:46;10.80;;;4.00;;
40717;SDS011;26405;51.850;-2.246;2022-12-07T10:41:11;16.73;;;4.15;;
40717;SDS011;26405;51.850;-2.246;2022-12-07T10:43:36;10.85;;;4.07;;
40717;SDS011;26405;51.850;-2.246;2022-12-07T11:06:14;12.00;;;4.20;;
40717;SDS011;26405;51.850;-2.246;2022-12-07T11:11:14;15.90;;;4.68;;
40717;SDS011;26405;51.850;-2.246;2022-12-07T11:13:59;12.95;;;4.25;;
40717;SDS011;26405;51.850;-2.246;2022-12-07T11:26:46;11.02;;;3.80;;
40717;SDS011;26405;51.850;-2.246;2022-12-07T11:34:20;14.27;;;4.00;;
40717;SDS011;26405;51.850;-2.246;2022-12-07T11:36:50;14.05;;;4.28;;
40717;SDS011;26405;51.850;-2.246;2022-12-07T11:39:25;10.52;;;4.00;;
40717;SDS011;26405;51.850;-2.246;2022-12-07T11:41:52;15.57;;;4.00;;
40717;SDS011;26405;51.850;-2.246;2022-12-07T11:44:26;14.40;;;4.00;;
40717;SDS011;26405;51.850;-2.246;2022-12-07T11:47:01;14.02;;;4.03;;
40717;SDS011;26405;51.850;-2.246;2022-12-07T11:51:52;10.43;;;3.97;;
40717;SDS011;26405;51.850;-2.246;2022-12-07T11:54:25;13.68;;;3.63;;
40717;SDS011;26405;51.850;-2.246;2022-12-07T11:56:51;15.93;;;4.15;;
40717;SDS011;26405;51.850;-2.246;2022-12-07T11:59:23;10.38;;;3.92;;
40717;SDS011;26405;51.850;-2.246;2022-12-07T12:01:52;10.90;;;3.88;;
40717;SDS011;26405;51.850;-2.246;2022-12-07T12:06:44;12.63;;;3.67;;
40717;SDS011;26405;51.850;-2.246;2022-12-07T12:09:16;12.60;;;3.87;;
40717;SDS011;26405;51.850;-2.246;2022-12-07T12:16:47;11.10;;;3.70;;
40717;SDS011;26405;51.850;-2.246;2022-12-07T12:21:40;12.10;;;4.07;;
40717;SDS011;26405;51.850;-2.246;2022-12-07T12:24:10;13.20;;;3.80;;
40717;SDS011;26405;51.850;-2.246;2022-12-07T12:26:36;12.98;;;4.20;;
40717;SDS011;26405;51.850;-2.246;2022-12-07T12:29:26;16.02;;;4.18;;
40717;SDS011;26405;51.850;-2.246;2022-12-07T12:32:04;13.02;;;4.00;;
40717;SDS011;26405;51.850;-2.246;2022-12-07T12:42:57;14.05;;;4.10;;
40717;SDS011;26405;51.850;-2.246;2022-12-07T12:45:23;13.43;;;4.15;;
40717;SDS011;26405;51.850;-2.246;2022-12-07T12:52:49;15.25;;;4.15;;
40717;SDS011;26405;51.850;-2.246;2022-12-07T12:55:15;13.50;;;4.47;;
40717;SDS011;26405;51.850;-2.246;2022-12-07T12:57:47;14.48;;;4.60;;
40717;SDS011;26405;51.850;-2.246;2022-12-07T13:02:38;13.77;;;4.10;;
40717;SDS011;26405;51.850;-2.246;2022-12-07T13:15:39;12.43;;;3.70;;
40717;SDS011;26405;51.850;-2.246;2022-12-07T13:18:22;10.98;;;4.00;;
40717;SDS011;26405;51.850;-2.246;2022-12-07T13:20:49;15.73;;;5.13;;
40717;SDS011;26405;51.850;-2.246;2022-12-07T13:23:16;12.52;;;4.15;;
40717;SDS011;26405;51.850;-2.246;2022-12-07T13:28:38;11.18;;;3.45;;
40717;SDS011;26405;51.850;-2.246;2022-12-07T13:33:49;10.82;;;3.15;;
40717;SDS011;26405;51.850;-2.246;2022-12-07T13:36:28;9.85;;;3.00;;
40717;SDS011;26405;51.850;-2.246;2022-12-07T13:38:59;13.82;;;3.60;;
40717;SDS011;26405;51.850;-2.246;2022-12-07T13:41:28;11.48;;;3.47;;
40717;SDS011;26405;51.850;-2.246;2022-12-07T13:46:21;10.10;;;3.53;;
40717;SDS011;26405;51.850;-2.246;2022-12-07T13:48:49;14.38;;;3.70;;
40717;SDS011;26405;51.850;-2.246;2022-12-07T13:53:47;13.27;;;3.60;;
40717;SDS011;26405;51.850;-2.246;2022-12-07T13:56:12;11.20;;;3.90;;
40717;SDS011;26405;51.850;-2.246;2022-12-07T13:58:38;14.55;;;4.05;;
40717;SDS011;26405;51.850;-2.246;2022-12-07T14:01:04;11.10;;;3.80;;
40717;SDS011;26405;51.850;-2.246;2022-12-07T14:03:34;14.57;;;4.20;;
40717;SDS011;26405;51.850;-2.246;2022-12-07T14:06:04;15.40;;;4.45;;
40717;SDS011;26405;51.850;-2.246;2022-12-07T14:08:29;16.35;;;4.47;;
40717;SDS011;26405;51.850;-2.246;2022-12-07T14:10:55;13.43;;;4.13;;
40717;SDS011;26405;51.850;-2.246;2022-12-07T14:13:28;13.05;;;4.03;;
40717;SDS011;26405;51.850;-2.246;2022-12-07T14:15:55;12.63;;;3.92;;
40717;SDS011;26405;51.850;-2.246;2022-12-07T14:21:05;13.05;;;4.10;;
40717;SDS011;26405;51.850;-2.246;2022-12-07T14:23:30;11.50;;;3.60;;
40717;SDS011;26405;51.850;-2.246;2022-12-07T14:26:04;14.25;;;4.07;;
40717;SDS011;26405;51.850;-2.246;2022-12-07T14:28:31;12.63;;;4.00;;
40717;SDS011;26405;51.850;-2.246;2022-12-07T14:30:57;12.30;;;4.00;;
40717;SDS011;26405;51.850;-2.246;2022-12-07T14:33:22;14.38;;;3.78;;
40717;SDS011;26405;51.850;-2.246;2022-12-07T14:35:48;12.05;;;3.63;;
40717;SDS011;26405;51.850;-2.246;2022-12-07T14:38:14;14.77;;;3.78;;
40717;SDS011;26405;51.850;-2.246;2022-12-07T14:40:39;14.27;;;3.88;;
40717;SDS011;26405;51.850;-2.246;2022-12-07T14:43:05;9.45;;;3.40;;
40717;SDS011;26405;51.850;-2.246;2022-12-07T14:45:33;7.78;;;3.25;;
40717;SDS011;26405;51.850;-2.246;2022-12-07T14:47:58;11.38;;;3.63;;
40717;SDS011;26405;51.850;-2.246;2022-12-07T14:50:24;13.63;;;3.80;;
40717;SDS011;26405;51.850;-2.246;2022-12-07T14:52:51;8.88;;;3.25;;
40717;SDS011;26405;51.850;-2.246;2022-12-07T14:57:45;8.52;;;3.45;;
40717;SDS011;26405;51.850;-2.246;2022-12-07T15:00:13;8.68;;;3.20;;
40717;SDS011;26405;51.850;-2.246;2022-12-07T15:02:38;10.55;;;3.35;;
40717;SDS011;26405;51.850;-2.246;2022-12-07T15:05:04;9.33;;;3.10;;
40717;SDS011;26405;51.850;-2.246;2022-12-07T15:07:29;8.30;;;3.20;;
40717;SDS011;26405;51.850;-2.246;2022-12-07T15:09:54;12.52;;;3.60;;
40717;SDS011;26405;51.850;-2.246;2022-12-07T15:12:20;14.18;;;3.53;;
40717;SDS011;26405;51.850;-2.246;2022-12-07T15:14:45;14.02;;;3.63;;
40717;SDS011;26405;51.850;-2.246;2022-12-07T15:17:11;11.83;;;3.20;;
40717;SDS011;26405;51.850;-2.246;2022-12-07T15:19:37;11.63;;;3.22;;
40717;SDS011;26405;51.850;-2.246;2022-12-07T15:22:02;15.27;;;3.43;;
40717;SDS011;26405;51.850;-2.246;2022-12-07T15:24:27;12.00;;;3.40;;
40717;SDS011;26405;51.850;-2.246;2022-12-07T15:26:53;13.77;;;3.55;;
40717;SDS011;26405;51.850;-2.246;2022-12-07T15:29:18;12.93;;;3.28;;
40717;SDS011;26405;51.850;-2.246;2022-12-07T15:31:43;14.27;;;4.15;;
40717;SDS011;26405;51.850;-2.246;2022-12-07T15:34:09;13.73;;;4.65;;
40717;SDS011;26405;51.850;-2.246;2022-12-07T15:36:34;17.92;;;5.45;;
40717;SDS011;26405;51.850;-2.246;2022-12-07T15:38:59;13.45;;;5.15;;
40717;SDS011;26405;51.850;-2.246;2022-12-07T15:41:25;15.80;;;5.38;;
40717;SDS011;26405;51.850;-2.246;2022-12-07T15:43:50;17.45;;;5.40;;
40717;SDS011;26405;51.850;-2.246;2022-12-07T15:46:35;14.45;;;4.75;;
40717;SDS011;26405;51.850;-2.246;2022-12-07T15:49:02;14.60;;;5.25;;
40717;SDS011;26405;51.850;-2.246;2022-12-07T15:51:28;21.25;;;5.55;;
40717;SDS011;26405;51.850;-2.246;2022-12-07T15:53:53;15.25;;;5.18;;
40717;SDS011;26405;51.850;-2.246;2022-12-07T15:56:19;15.02;;;5.07;;
40717;SDS011;26405;51.850;-2.246;2022-12-07T15:58:44;17.75;;;5.53;;
40717;SDS011;26405;51.850;-2.246;2022-12-07T16:01:13;15.85;;;5.13;;
40717;SDS011;26405;51.850;-2.246;2022-12-07T16:03:38;15.43;;;5.13;;
40717;SDS011;26405;51.850;-2.246;2022-12-07T16:06:03;15.65;;;5.50;;
40717;SDS011;26405;51.850;-2.246;2022-12-07T16:08:29;15.98;;;5.32;;
40717;SDS011;26405;51.850;-2.246;2022-12-07T16:10:54;18.55;;;5.97;;
40717;SDS011;26405;51.850;-2.246;2022-12-07T16:13:19;18.77;;;5.95;;
40717;SDS011;26405;51.850;-2.246;2022-12-07T16:15:45;19.35;;;5.80;;
40717;SDS011;26405;51.850;-2.246;2022-12-07T16:18:10;17.00;;;5.45;;
40717;SDS011;26405;51.850;-2.246;2022-12-07T16:20:35;18.33;;;5.53;;
40717;SDS011;26405;51.850;-2.246;2022-12-07T16:23:00;16.75;;;5.47;;
40717;SDS011;26405;51.850;-2.246;2022-12-07T16:25:26;16.75;;;6.25;;